createdAt,value
2023-04-15T00:00:26.209Z,4.06
2023-04-15T00:03:31.086Z,4.03
2023-04-15T00:06:35.801Z,4.05
2023-04-15T00:09:39.690Z,4.11
2023-04-15T00:12:43.790Z,4.16
2023-04-15T00:15:47.545Z,4.21
2023-04-15T00:18:50.964Z,4.21
2023-04-15T00:21:54.600Z,4.19
2023-04-15T00:24:57.720Z,4.17
2023-04-15T00:28:01.159Z,4.21
2023-04-15T00:31:04.542Z,4.25
2023-04-15T00:34:08.555Z,4.29
2023-04-15T00:37:11.865Z,4.26
2023-04-15T00:40:18.981Z,4.25
2023-04-15T00:43:22.763Z,4.23
2023-04-15T00:46:29.757Z,4.24
2023-04-15T00:49:33.278Z,4.23
2023-04-15T00:52:38.012Z,4.30
2023-04-15T00:55:41.229Z,4.37
2023-04-15T00:58:44.651Z,4.40
2023-04-15T01:01:48.957Z,4.39
2023-04-15T01:04:52.668Z,4.42
2023-04-15T01:07:57.411Z,4.40
2023-04-15T01:11:03.817Z,4.43
2023-04-15T01:14:09.109Z,4.43
2023-04-15T01:17:14.305Z,4.48
2023-04-15T01:20:17.712Z,4.52
2023-04-15T01:23:23.332Z,4.55
2023-04-15T01:26:27.688Z,4.56
2023-04-15T01:29:33.346Z,4.54
2023-04-15T01:32:37.095Z,4.53
2023-04-15T01:35:40.463Z,4.52
2023-04-15T01:38:43.952Z,4.54
2023-04-15T01:41:47.658Z,4.51
2023-04-15T01:44:52.397Z,4.47
2023-04-15T01:47:55.942Z,4.47
2023-04-15T01:50:59.715Z,4.51
2023-04-15T01:54:03.676Z,4.51
2023-04-15T01:57:07.080Z,4.54
2023-04-15T02:00:11.769Z,4.56
2023-04-15T02:03:16.106Z,4.57
2023-04-15T02:06:19.588Z,4.59
2023-04-15T02:09:24.017Z,4.60
2023-04-15T02:12:27.854Z,4.60
2023-04-15T02:15:31.120Z,4.64
2023-04-15T02:18:36.560Z,4.67
2023-04-15T02:21:41.768Z,4.68
2023-04-15T02:24:47.208Z,4.71
2023-04-15T02:27:50.198Z,4.71
2023-04-15T02:30:58.542Z,4.73
2023-04-15T02:34:04.426Z,4.73
2023-04-15T02:37:09.974Z,4.73
2023-04-15T02:40:13.650Z,4.51
2023-04-15T02:43:17.850Z,4.78
2023-04-15T02:46:23.049Z,4.66
2023-04-15T02:49:30.020Z,4.83
2023-04-15T02:52:35.071Z,4.84
2023-04-15T02:55:39.505Z,4.87
2023-04-15T02:58:45.799Z,4.88
2023-04-15T03:01:49.738Z,4.87
2023-04-15T03:04:53.139Z,4.89
2023-04-15T03:07:56.772Z,4.91
2023-04-15T03:11:01.035Z,4.94
2023-04-15T03:14:04.855Z,4.99
2023-04-15T03:17:08.228Z,5.04
2023-04-15T03:20:11.863Z,5.00
2023-04-15T03:23:15.059Z,5.03
2023-04-15T03:26:31.912Z,5.11
2023-04-15T03:29:36.877Z,5.13
2023-04-15T03:32:40.884Z,5.13
2023-04-15T03:35:44.788Z,5.09
2023-04-15T03:38:49.472Z,5.16
2023-04-15T03:41:52.773Z,5.18
2023-04-15T03:44:56.401Z,5.18
2023-04-15T03:48:11.560Z,5.16
2023-04-15T03:51:20.863Z,5.19
2023-04-15T03:54:24.786Z,5.19
2023-04-15T03:57:28.357Z,5.21
2023-04-15T04:00:35.579Z,5.23
2023-04-15T04:03:39.287Z,5.26
2023-04-15T04:06:42.394Z,5.28
2023-04-15T04:09:48.405Z,5.27
2023-04-15T04:12:53.868Z,5.34
2023-04-15T04:15:57.338Z,5.40
2023-04-15T04:19:00.875Z,5.45
2023-04-15T04:22:04.656Z,5.47
2023-04-15T04:25:10.254Z,5.50
2023-04-15T04:28:13.792Z,5.51
2023-04-15T04:31:17.222Z,5.52
2023-04-15T04:34:21.261Z,5.54
2023-04-15T04:37:24.991Z,5.57
2023-04-15T04:40:28.305Z,5.64
2023-04-15T04:43:31.487Z,5.68
2023-04-15T04:46:35.906Z,5.72
2023-04-15T04:49:39.594Z,5.71
2023-04-15T04:52:42.953Z,5.82
2023-04-15T04:55:46.045Z,5.87
2023-04-15T04:58:49.499Z,5.87
2023-04-15T05:01:53.260Z,5.89
2023-04-15T05:04:56.901Z,6.04
2023-04-15T05:07:59.958Z,6.21
2023-04-15T05:11:03.831Z,6.46
2023-04-15T05:14:07.754Z,6.65
2023-04-15T05:17:11.764Z,6.76
2023-04-15T05:20:15.812Z,6.88
2023-04-15T05:23:19.620Z,7.15
2023-04-15T05:26:22.879Z,7.38
2023-04-15T05:29:26.386Z,7.41
2023-04-15T05:32:29.593Z,7.36
2023-04-15T05:35:34.541Z,7.50
2023-04-15T05:38:37.841Z,7.59
2023-04-15T05:41:42.178Z,7.59
2023-04-15T05:44:45.309Z,7.51
2023-04-15T05:47:51.043Z,7.47
2023-04-15T05:50:54.794Z,7.46
2023-04-15T05:53:58.395Z,7.50
2023-04-15T05:57:01.901Z,7.75
2023-04-15T06:00:06.449Z,7.93
2023-04-15T06:03:12.748Z,8.10
2023-04-15T06:06:16.638Z,7.97
2023-04-15T06:09:19.724Z,8.04
2023-04-15T06:12:23.028Z,7.96
2023-04-15T06:15:26.220Z,8.14
2023-04-15T06:18:29.867Z,8.28
2023-04-15T06:21:33.605Z,8.37
2023-04-15T06:24:37.256Z,8.01
2023-04-15T06:27:41.545Z,7.77
2023-04-15T06:30:49.120Z,7.75
2023-04-15T06:33:52.483Z,7.47
2023-04-15T06:36:57.198Z,7.62
2023-04-15T06:40:00.291Z,7.58
2023-04-15T06:43:05.008Z,7.69
2023-04-15T06:46:09.010Z,7.69
2023-04-15T06:49:12.472Z,7.72
2023-04-15T06:52:16.817Z,7.86
2023-04-15T06:55:20.382Z,7.79
2023-04-15T06:58:23.475Z,7.95
2023-04-15T07:01:26.884Z,8.36
2023-04-15T07:04:30.690Z,8.64
2023-04-15T07:07:34.280Z,8.88
2023-04-15T07:10:38.243Z,8.84
2023-04-15T07:13:41.611Z,8.94
2023-04-15T07:16:44.914Z,8.82
2023-04-15T07:19:48.340Z,8.71
2023-04-15T07:22:51.433Z,8.61
2023-04-15T07:25:55.958Z,8.61
2023-04-15T07:28:59.082Z,8.81
2023-04-15T07:32:02.828Z,9.14
2023-04-15T07:35:06.290Z,9.67
2023-04-15T07:38:09.719Z,10.56
2023-04-15T07:41:13.154Z,11.26
2023-04-15T07:44:16.749Z,11.24
2023-04-15T07:47:19.925Z,10.64
2023-04-15T07:50:24.302Z,10.56
2023-04-15T07:53:27.607Z,10.52
2023-04-15T07:56:31.234Z,10.52
2023-04-15T07:59:34.495Z,10.57
2023-04-15T08:02:40.214Z,10.37
2023-04-15T08:05:44.837Z,9.85
2023-04-15T08:08:48.366Z,9.61
2023-04-15T08:11:52.059Z,9.47
2023-04-15T08:14:55.717Z,9.28
2023-04-15T08:18:01.402Z,9.28
2023-04-15T08:21:05.902Z,10.47
2023-04-15T08:24:09.356Z,10.93
2023-04-15T08:27:13.789Z,10.82
2023-04-15T08:30:19.675Z,10.62
2023-04-15T08:33:24.027Z,10.42
2023-04-15T08:36:27.642Z,10.15
2023-04-15T08:39:30.918Z,9.79
2023-04-15T08:42:42.974Z,9.68
2023-04-15T08:45:48.761Z,10.07
2023-04-15T08:48:56.722Z,10.12
2023-04-15T08:52:01.837Z,10.34
2023-04-15T08:55:07.621Z,10.29
2023-04-15T08:58:13.020Z,10.28
2023-04-15T09:01:17.171Z,10.54
2023-04-15T09:04:20.789Z,11.24
2023-04-15T09:07:24.188Z,11.67
2023-04-15T09:10:28.267Z,11.75
2023-04-15T09:13:32.199Z,11.66
2023-04-15T09:17:01.479Z,11.80
2023-04-15T09:20:09.960Z,12.57
2023-04-15T09:23:17.671Z,13.11
2023-04-15T09:26:34.863Z,12.19
2023-04-15T09:29:38.251Z,11.66
2023-04-15T09:32:54.137Z,11.54
2023-04-15T09:36:07.017Z,11.27
2023-04-15T09:39:10.467Z,11.28
2023-04-15T09:42:14.609Z,11.42
2023-04-15T09:45:18.177Z,11.76
2023-04-15T09:48:27.400Z,12.44
2023-04-15T09:51:35.936Z,12.70
2023-04-15T09:54:39.303Z,12.11
2023-04-15T09:57:44.463Z,11.82
2023-04-15T10:00:49.331Z,11.75
2023-04-15T10:03:54.610Z,12.03
2023-04-15T10:06:58.536Z,12.30
2023-04-15T10:10:03.826Z,12.20
2023-04-15T10:13:07.567Z,12.81
2023-04-15T10:16:20.017Z,13.51
2023-04-15T10:19:27.806Z,12.99
2023-04-15T10:22:32.818Z,12.37
2023-04-15T10:25:37.541Z,12.33
2023-04-15T10:28:41.789Z,12.20
2023-04-15T10:31:45.608Z,12.11
2023-04-15T10:34:51.882Z,11.98
2023-04-15T10:37:57.007Z,12.23
2023-04-15T10:41:17.678Z,13.22
2023-04-15T10:44:22.720Z,14.18
2023-04-15T10:47:26.256Z,14.07
2023-04-15T10:50:33.769Z,13.45
2023-04-15T10:53:38.078Z,13.21
2023-04-15T10:56:45.864Z,13.30
2023-04-15T10:59:59.210Z,13.33
2023-04-15T11:03:10.041Z,12.56
2023-04-15T11:06:13.699Z,11.84
2023-04-15T11:09:32.676Z,11.33
2023-04-15T11:12:36.591Z,11.36
2023-04-15T11:15:48.065Z,12.20
2023-04-15T11:18:56.149Z,12.80
2023-04-15T11:22:07.611Z,12.70
2023-04-15T11:25:10.935Z,13.08
2023-04-15T11:28:14.376Z,13.74
2023-04-15T11:31:20.115Z,14.03
2023-04-15T11:34:24.117Z,14.08
2023-04-15T11:37:30.480Z,13.39
2023-04-15T11:40:35.585Z,13.33
2023-04-15T11:43:40.423Z,12.65
2023-04-15T11:46:45.470Z,12.57
2023-04-15T11:49:48.979Z,11.92
2023-04-15T11:53:01.098Z,11.59
2023-04-15T11:56:05.077Z,11.86
2023-04-15T11:59:08.434Z,12.27
2023-04-15T12:02:13.645Z,12.23
2023-04-15T12:05:17.456Z,12.85
2023-04-15T12:08:21.376Z,13.20
2023-04-15T12:11:31.041Z,13.73
2023-04-15T12:14:34.460Z,14.19
2023-04-15T12:17:50.976Z,13.57
2023-04-15T12:20:56.154Z,13.11
2023-04-15T12:24:03.051Z,13.11
2023-04-15T12:27:08.051Z,13.04
2023-04-15T12:30:11.849Z,13.27
2023-04-15T12:33:15.451Z,13.00
2023-04-15T12:36:20.086Z,12.68
2023-04-15T12:39:25.680Z,12.75
2023-04-15T12:42:29.389Z,13.04
2023-04-15T12:45:33.052Z,12.94
2023-04-15T12:48:37.009Z,13.48
2023-04-15T12:51:40.017Z,12.96
2023-04-15T12:54:43.591Z,13.11
2023-04-15T12:57:46.724Z,13.50
2023-04-15T13:00:50.492Z,13.38
2023-04-15T13:03:54.089Z,12.95
2023-04-15T13:06:57.705Z,13.12
2023-04-15T13:10:01.198Z,12.78
2023-04-15T13:13:05.603Z,12.29
2023-04-15T13:16:08.811Z,12.34
2023-04-15T13:19:12.228Z,12.18
2023-04-15T13:22:15.640Z,12.26
2023-04-15T13:25:20.150Z,11.97
2023-04-15T13:28:23.229Z,11.88
2023-04-15T13:31:27.350Z,12.00
2023-04-15T13:34:32.107Z,12.25
2023-04-15T13:37:35.684Z,12.44
2023-04-15T13:40:38.906Z,12.48
2023-04-15T13:43:42.417Z,12.75
2023-04-15T13:46:45.605Z,12.65
2023-04-15T13:49:48.957Z,12.51
2023-04-15T13:52:52.956Z,12.33
2023-04-15T13:55:56.502Z,11.93
2023-04-15T13:59:02.299Z,11.88
2023-04-15T14:02:05.904Z,12.10
2023-04-15T14:05:10.794Z,12.25
2023-04-15T14:08:14.253Z,12.22
2023-04-15T14:11:18.119Z,12.26
2023-04-15T14:14:21.325Z,12.49
2023-04-15T14:17:25.288Z,12.56
2023-04-15T14:20:29.615Z,12.54
2023-04-15T14:23:33.396Z,12.33
2023-04-15T14:26:37.165Z,12.10
2023-04-15T14:29:41.292Z,11.88
2023-04-15T14:32:44.814Z,11.59
2023-04-15T14:35:50.068Z,11.24
2023-04-15T14:38:53.400Z,11.10
2023-04-15T14:41:56.879Z,11.07
2023-04-15T14:45:00.795Z,11.13
2023-04-15T14:48:09.938Z,11.20
2023-04-15T14:51:14.153Z,11.30
2023-04-15T14:54:21.210Z,11.35
2023-04-15T14:57:25.418Z,11.25
2023-04-15T15:00:28.834Z,11.12
2023-04-15T15:03:32.474Z,11.11
2023-04-15T15:06:36.227Z,11.03
2023-04-15T15:09:39.449Z,11.24
2023-04-15T15:12:45.823Z,11.50
2023-04-15T15:15:51.951Z,11.57
2023-04-15T15:18:55.625Z,11.66
2023-04-15T15:21:59.009Z,11.65
2023-04-15T15:25:02.646Z,11.59
2023-04-15T15:28:06.416Z,11.55
2023-04-15T15:31:09.962Z,11.43
2023-04-15T15:34:14.071Z,11.25
2023-04-15T15:37:19.323Z,11.23
2023-04-15T15:40:22.753Z,11.23
2023-04-15T15:43:26.822Z,11.21
2023-04-15T15:46:31.585Z,11.22
2023-04-15T15:49:35.795Z,11.22
2023-04-15T15:52:38.809Z,11.20
2023-04-15T15:55:42.390Z,11.18
2023-04-15T15:58:50.252Z,10.99
2023-04-15T16:01:53.902Z,11.00
2023-04-15T16:04:57.340Z,10.89
2023-04-15T16:08:00.837Z,10.85
2023-04-15T16:11:04.808Z,10.81
2023-04-15T16:14:08.367Z,10.78
2023-04-15T16:17:12.203Z,10.73
2023-04-15T16:20:15.777Z,10.58
2023-04-15T16:23:20.735Z,9.64
2023-04-15T16:26:24.353Z,9.14
2023-04-15T16:29:29.069Z,8.70
2023-04-15T16:32:32.385Z,8.37
2023-04-15T16:35:36.107Z,8.08
2023-04-15T16:38:39.725Z,7.97
2023-04-15T16:41:43.399Z,7.95
2023-04-15T16:44:46.651Z,7.93
2023-04-15T16:47:50.411Z,7.96
2023-04-15T16:50:54.984Z,8.02
2023-04-15T16:53:58.781Z,8.07
2023-04-15T16:57:02.943Z,8.12
2023-04-15T17:00:07.430Z,8.12
2023-04-15T17:03:11.160Z,8.02
2023-04-15T17:06:17.792Z,7.99
2023-04-15T17:09:21.106Z,7.91
2023-04-15T17:12:24.792Z,7.85
2023-04-15T17:15:28.477Z,7.76
2023-04-15T17:18:32.731Z,7.71
2023-04-15T17:21:36.355Z,7.74
2023-04-15T17:24:39.892Z,7.71
2023-04-15T17:27:43.229Z,7.72
2023-04-15T17:30:48.289Z,7.65
2023-04-15T17:34:03.984Z,7.59
2023-04-15T17:37:13.779Z,7.55
2023-04-15T17:40:17.341Z,7.54
2023-04-15T17:43:21.410Z,7.55
2023-04-15T17:46:25.469Z,7.42
2023-04-15T17:49:31.403Z,7.41
2023-04-15T17:52:36.454Z,7.38
2023-04-15T17:55:40.264Z,7.29
2023-04-15T17:58:44.057Z,7.16
2023-04-15T18:01:48.451Z,7.14
2023-04-15T18:05:02.065Z,7.13
2023-04-15T18:08:07.396Z,7.05
2023-04-15T18:11:12.518Z,6.87
2023-04-15T18:14:26.963Z,6.91
2023-04-15T18:17:37.542Z,6.85
2023-04-15T18:20:43.275Z,6.86
2023-04-15T18:23:46.838Z,6.82
2023-04-15T18:26:51.021Z,6.77
2023-04-15T18:29:54.891Z,6.64
2023-04-15T18:33:01.825Z,6.54
2023-04-15T18:36:05.435Z,6.42
2023-04-15T18:39:09.130Z,6.32
2023-04-15T18:42:13.686Z,6.21
2023-04-15T18:45:17.442Z,6.22
2023-04-15T18:48:22.958Z,6.24
2023-04-15T18:51:27.195Z,6.11
2023-04-15T18:54:32.605Z,6.02
2023-04-15T18:57:37.040Z,5.99
2023-04-15T19:00:44.169Z,5.99
2023-04-15T19:03:48.663Z,5.95
2023-04-15T19:06:52.967Z,5.99
2023-04-15T19:09:57.861Z,6.00
2023-04-15T19:13:04.451Z,6.13
2023-04-15T19:16:09.750Z,6.14
2023-04-15T19:19:16.100Z,6.18
2023-04-15T19:22:20.411Z,6.13
2023-04-15T19:25:25.354Z,6.10
2023-04-15T19:28:31.183Z,6.05
2023-04-15T19:31:35.707Z,6.01
2023-04-15T19:34:42.621Z,5.95
2023-04-15T19:37:48.350Z,5.87
2023-04-15T19:40:52.324Z,5.83
2023-04-15T19:43:57.019Z,5.83
2023-04-15T19:47:00.631Z,5.75
2023-04-15T19:50:08.082Z,5.73
2023-04-15T19:53:12.218Z,5.69
2023-04-15T19:56:21.957Z,5.59
2023-04-15T19:59:26.507Z,5.57
2023-04-15T20:02:31.684Z,5.60
2023-04-15T20:05:36.866Z,5.65
2023-04-15T20:08:43.236Z,5.68
2023-04-15T20:12:48.352Z,5.72
2023-04-15T20:15:12.233Z,5.67
2023-04-15T20:18:17.768Z,5.67
2023-04-15T20:21:22.815Z,5.73
2023-04-15T20:24:26.600Z,5.74
2023-04-15T20:27:30.506Z,5.74
2023-04-15T20:30:35.600Z,5.69
2023-04-15T20:33:39.129Z,5.63
2023-04-15T20:36:42.743Z,5.61
2023-04-15T20:39:46.229Z,5.66
2023-04-15T20:42:51.611Z,5.65
2023-04-15T20:45:57.555Z,5.63
2023-04-15T20:49:03.533Z,5.58
2023-04-15T20:52:08.588Z,5.61
2023-04-15T20:55:12.881Z,5.64
2023-04-15T20:58:16.598Z,5.63
2023-04-15T21:01:21.055Z,5.74
2023-04-15T21:04:25.071Z,5.78
2023-04-15T21:07:28.873Z,5.81
2023-04-15T21:10:35.363Z,5.79
2023-04-15T21:13:38.992Z,5.80
2023-04-15T21:16:51.100Z,5.80
2023-04-15T21:19:54.769Z,5.85
2023-04-15T21:22:58.144Z,5.91
2023-04-15T21:26:02.041Z,5.93
2023-04-15T21:29:07.909Z,5.96
2023-04-15T21:32:13.076Z,6.00
2023-04-15T21:35:16.255Z,6.01
2023-04-15T21:38:21.330Z,6.04
2023-04-15T21:41:27.330Z,6.04
2023-04-15T21:44:31.311Z,5.99
2023-04-15T21:47:57.150Z,5.97
2023-04-15T21:51:01.029Z,5.94
2023-04-15T21:54:04.363Z,5.90
2023-04-15T21:57:07.853Z,5.77
2023-04-15T22:00:11.979Z,5.79
2023-04-15T22:03:16.185Z,5.70
2023-04-15T22:06:19.820Z,5.69
2023-04-15T22:09:23.018Z,5.62
2023-04-15T22:12:26.781Z,5.50
2023-04-15T22:15:32.768Z,5.57
2023-04-15T22:18:41.117Z,5.47
2023-04-15T22:21:44.944Z,5.57
2023-04-15T22:24:48.340Z,5.59
2023-04-15T22:27:51.467Z,5.61
2023-04-15T22:30:55.128Z,5.67
2023-04-15T22:33:58.559Z,5.65
2023-04-15T22:37:03.026Z,5.54
2023-04-15T22:40:06.782Z,5.51
2023-04-15T22:43:10.965Z,5.35
2023-04-15T22:46:14.745Z,5.37
2023-04-15T22:49:18.401Z,5.27
2023-04-15T22:52:30.003Z,5.21
2023-04-15T22:55:34.173Z,5.11
2023-04-15T22:58:38.581Z,5.12
2023-04-15T23:01:42.508Z,5.06
2023-04-15T23:04:46.204Z,5.04
2023-04-15T23:07:49.657Z,5.00
2023-04-15T23:10:52.774Z,5.02
2023-04-15T23:13:56.770Z,5.01
2023-04-15T23:17:00.066Z,5.07
2023-04-15T23:20:03.639Z,5.07
2023-04-15T23:23:07.302Z,5.08
2023-04-15T23:26:13.068Z,5.05
2023-04-15T23:29:16.465Z,5.10
2023-04-15T23:32:20.912Z,5.07
2023-04-15T23:35:25.563Z,5.11
2023-04-15T23:38:29.146Z,4.97
2023-04-15T23:41:32.370Z,5.23
2023-04-15T23:44:38.410Z,5.26
2023-04-15T23:47:42.090Z,5.34
2023-04-15T23:50:45.525Z,5.39
2023-04-15T23:53:49.463Z,5.43
2023-04-15T23:56:54.164Z,5.47
2023-04-15T23:59:57.302Z,5.47
